sensor_id;sensor_type;location;lat;lon;timestamp;temperature;humidity
49385;DHT22;36795;45.028;38.968;2022-07-26T00:00:14;23.20;80.60
49385;DHT22;36795;45.028;38.968;2022-07-26T00:03:01;23.30;80.60
49385;DHT22;36795;45.028;38.968;2022-07-26T00:05:47;23.20;80.40
49385;DHT22;36795;45.028;38.968;2022-07-26T00:08:34;23.30;80.90
49385;DHT22;36795;45.028;38.968;2022-07-26T00:11:20;23.30;80.30
49385;DHT22;36795;45.028;38.968;2022-07-26T00:14:07;23.30;80.40
49385;DHT22;36795;45.028;38.968;2022-07-26T00:16:53;23.30;80.40
49385;DHT22;36795;45.028;38.968;2022-07-26T00:19:40;23.30;80.50
49385;DHT22;36795;45.028;38.968;2022-07-26T00:22:26;23.20;80.50
49385;DHT22;36795;45.028;38.968;2022-07-26T00:25:24;23.20;80.70
49385;DHT22;36795;45.028;38.968;2022-07-26T00:28:10;23.20;80.80
49385;DHT22;36795;45.028;38.968;2022-07-26T00:30:56;23.10;80.90
49385;DHT22;36795;45.028;38.968;2022-07-26T00:33:43;23.10;80.90
49385;DHT22;36795;45.028;38.968;2022-07-26T00:36:29;23.10;81.00
49385;DHT22;36795;45.028;38.968;2022-07-26T00:39:15;23.10;81.00
49385;DHT22;36795;45.028;38.968;2022-07-26T00:42:01;23.10;81.50
49385;DHT22;36795;45.028;38.968;2022-07-26T00:44:47;23.20;80.90
49385;DHT22;36795;45.028;38.968;2022-07-26T00:47:34;23.20;80.90
49385;DHT22;36795;45.028;38.968;2022-07-26T00:50:19;23.20;80.90
49385;DHT22;36795;45.028;38.968;2022-07-26T00:53:05;23.20;80.90
49385;DHT22;36795;45.028;38.968;2022-07-26T00:55:51;23.20;80.90
49385;DHT22;36795;45.028;38.968;2022-07-26T00:58:38;23.10;80.90
49385;DHT22;36795;45.028;38.968;2022-07-26T01:01:24;23.10;81.10
49385;DHT22;36795;45.028;38.968;2022-07-26T01:04:11;23.10;81.20
49385;DHT22;36795;45.028;38.968;2022-07-26T01:06:57;23.00;81.30
49385;DHT22;36795;45.028;38.968;2022-07-26T01:09:44;23.00;81.30
49385;DHT22;36795;45.028;38.968;2022-07-26T01:12:31;23.00;81.40
49385;DHT22;36795;45.028;38.968;2022-07-26T01:15:17;23.00;81.60
49385;DHT22;36795;45.028;38.968;2022-07-26T01:18:03;23.00;81.70
49385;DHT22;36795;45.028;38.968;2022-07-26T01:20:50;23.00;81.80
49385;DHT22;36795;45.028;38.968;2022-07-26T01:23:38;23.00;81.80
49385;DHT22;36795;45.028;38.968;2022-07-26T01:26:24;23.00;81.70
49385;DHT22;36795;45.028;38.968;2022-07-26T01:29:10;23.00;81.80
49385;DHT22;36795;45.028;38.968;2022-07-26T01:31:56;23.00;81.80
49385;DHT22;36795;45.028;38.968;2022-07-26T01:34:42;23.00;81.70
49385;DHT22;36795;45.028;38.968;2022-07-26T01:37:29;23.00;81.70
49385;DHT22;36795;45.028;38.968;2022-07-26T01:40:15;23.10;81.60
49385;DHT22;36795;45.028;38.968;2022-07-26T01:43:01;23.10;81.40
49385;DHT22;36795;45.028;38.968;2022-07-26T01:45:46;23.10;81.40
49385;DHT22;36795;45.028;38.968;2022-07-26T01:48:33;23.10;81.50
49385;DHT22;36795;45.028;38.968;2022-07-26T01:51:19;23.10;81.50
49385;DHT22;36795;45.028;38.968;2022-07-26T01:54:06;23.00;81.60
49385;DHT22;36795;45.028;38.968;2022-07-26T01:56:52;23.00;81.80
49385;DHT22;36795;45.028;38.968;2022-07-26T01:59:38;23.00;81.80
49385;DHT22;36795;45.028;38.968;2022-07-26T02:02:24;23.00;81.80
49385;DHT22;36795;45.028;38.968;2022-07-26T02:05:11;23.00;81.90
49385;DHT22;36795;45.028;38.968;2022-07-26T02:07:57;23.00;81.80
49385;DHT22;36795;45.028;38.968;2022-07-26T02:10:43;23.00;81.70
49385;DHT22;36795;45.028;38.968;2022-07-26T02:13:48;23.00;81.70
49385;DHT22;36795;45.028;38.968;2022-07-26T02:16:34;23.00;81.80
49385;DHT22;36795;45.028;38.968;2022-07-26T02:19:19;23.00;81.70
49385;DHT22;36795;45.028;38.968;2022-07-26T02:22:06;23.00;81.60
49385;DHT22;36795;45.028;38.968;2022-07-26T02:24:52;23.00;81.70
49385;DHT22;36795;45.028;38.968;2022-07-26T02:27:39;23.00;81.80
49385;DHT22;36795;45.028;38.968;2022-07-26T02:30:24;23.00;81.80
49385;DHT22;36795;45.028;38.968;2022-07-26T02:33:11;23.00;81.80
49385;DHT22;36795;45.028;38.968;2022-07-26T02:35:57;23.00;81.80
49385;DHT22;36795;45.028;38.968;2022-07-26T02:38:43;23.00;81.80
49385;DHT22;36795;45.028;38.968;2022-07-26T02:41:29;23.00;81.70
49385;DHT22;36795;45.028;38.968;2022-07-26T02:44:16;23.00;81.60
49385;DHT22;36795;45.028;38.968;2022-07-26T02:47:01;23.10;81.50
49385;DHT22;36795;45.028;38.968;2022-07-26T02:49:48;23.10;81.40
49385;DHT22;36795;45.028;38.968;2022-07-26T02:52:34;23.10;81.30
49385;DHT22;36795;45.028;38.968;2022-07-26T02:55:22;23.10;81.30
49385;DHT22;36795;45.028;38.968;2022-07-26T02:58:09;23.20;81.30
49385;DHT22;36795;45.028;38.968;2022-07-26T03:00:55;23.10;81.30
49385;DHT22;36795;45.028;38.968;2022-07-26T03:03:41;23.10;81.30
49385;DHT22;36795;45.028;38.968;2022-07-26T03:06:27;23.10;81.30
49385;DHT22;36795;45.028;38.968;2022-07-26T03:09:13;23.10;81.20
49385;DHT22;36795;45.028;38.968;2022-07-26T03:11:59;23.10;81.20
49385;DHT22;36795;45.028;38.968;2022-07-26T03:14:45;23.20;81.10
49385;DHT22;36795;45.028;38.968;2022-07-26T03:17:31;23.20;81.00
49385;DHT22;36795;45.028;38.968;2022-07-26T03:20:17;23.20;81.00
49385;DHT22;36795;45.028;38.968;2022-07-26T03:23:04;23.30;80.80
49385;DHT22;36795;45.028;38.968;2022-07-26T03:25:49;23.30;80.70
49385;DHT22;36795;45.028;38.968;2022-07-26T03:28:36;23.30;80.70
49385;DHT22;36795;45.028;38.968;2022-07-26T03:31:24;23.40;80.50
49385;DHT22;36795;45.028;38.968;2022-07-26T03:34:10;23.30;80.50
49385;DHT22;36795;45.028;38.968;2022-07-26T03:36:56;23.30;80.50
49385;DHT22;36795;45.028;38.968;2022-07-26T03:39:43;23.40;80.50
49385;DHT22;36795;45.028;38.968;2022-07-26T03:42:29;23.40;80.60
49385;DHT22;36795;45.028;38.968;2022-07-26T03:45:15;23.40;80.60
49385;DHT22;36795;45.028;38.968;2022-07-26T03:48:01;23.40;80.50
49385;DHT22;36795;45.028;38.968;2022-07-26T03:50:47;23.50;80.40
49385;DHT22;36795;45.028;38.968;2022-07-26T03:53:33;23.60;80.10
49385;DHT22;36795;45.028;38.968;2022-07-26T03:56:19;23.60;79.80
49385;DHT22;36795;45.028;38.968;2022-07-26T03:59:17;23.70;79.60
49385;DHT22;36795;45.028;38.968;2022-07-26T04:02:04;23.80;79.50
49385;DHT22;36795;45.028;38.968;2022-07-26T04:04:50;23.70;79.90
49385;DHT22;36795;45.028;38.968;2022-07-26T04:07:44;23.80;79.30
49385;DHT22;36795;45.028;38.968;2022-07-26T04:10:31;23.70;79.40
49385;DHT22;36795;45.028;38.968;2022-07-26T04:13:18;23.80;79.50
49385;DHT22;36795;45.028;38.968;2022-07-26T04:16:05;23.80;79.20
49385;DHT22;36795;45.028;38.968;2022-07-26T04:18:52;23.80;79.30
49385;DHT22;36795;45.028;38.968;2022-07-26T04:21:39;23.80;79.20
49385;DHT22;36795;45.028;38.968;2022-07-26T04:24:25;23.80;79.20
49385;DHT22;36795;45.028;38.968;2022-07-26T04:27:11;23.90;79.20
49385;DHT22;36795;45.028;38.968;2022-07-26T04:29:57;24.00;79.00
49385;DHT22;36795;45.028;38.968;2022-07-26T04:32:44;24.10;78.80
49385;DHT22;36795;45.028;38.968;2022-07-26T04:35:31;24.20;78.60
49385;DHT22;36795;45.028;38.968;2022-07-26T04:38:18;24.30;78.20
49385;DHT22;36795;45.028;38.968;2022-07-26T04:41:04;24.40;77.80
49385;DHT22;36795;45.028;38.968;2022-07-26T04:43:50;24.40;77.60
49385;DHT22;36795;45.028;38.968;2022-07-26T04:46:36;24.50;77.40
49385;DHT22;36795;45.028;38.968;2022-07-26T04:49:22;24.50;77.20
49385;DHT22;36795;45.028;38.968;2022-07-26T04:52:08;24.60;77.30
49385;DHT22;36795;45.028;38.968;2022-07-26T04:54:54;24.70;77.10
49385;DHT22;36795;45.028;38.968;2022-07-26T04:57:40;24.90;76.50
49385;DHT22;36795;45.028;38.968;2022-07-26T05:00:27;25.00;76.10
49385;DHT22;36795;45.028;38.968;2022-07-26T05:03:13;25.10;75.60
49385;DHT22;36795;45.028;38.968;2022-07-26T05:05:59;25.20;75.00
49385;DHT22;36795;45.028;38.968;2022-07-26T05:08:45;25.30;74.80
49385;DHT22;36795;45.028;38.968;2022-07-26T05:11:31;25.30;74.40
49385;DHT22;36795;45.028;38.968;2022-07-26T05:14:17;25.40;74.60
49385;DHT22;36795;45.028;38.968;2022-07-26T05:17:03;25.50;74.50
49385;DHT22;36795;45.028;38.968;2022-07-26T05:19:49;25.70;74.20
49385;DHT22;36795;45.028;38.968;2022-07-26T05:22:35;25.80;73.50
49385;DHT22;36795;45.028;38.968;2022-07-26T05:25:22;25.80;73.10
49385;DHT22;36795;45.028;38.968;2022-07-26T05:28:08;25.70;73.20
49385;DHT22;36795;45.028;38.968;2022-07-26T05:30:54;25.60;73.40
49385;DHT22;36795;45.028;38.968;2022-07-26T05:33:40;25.60;73.40
49385;DHT22;36795;45.028;38.968;2022-07-26T05:36:26;25.60;73.70
49385;DHT22;36795;45.028;38.968;2022-07-26T05:39:12;25.70;73.80
49385;DHT22;36795;45.028;38.968;2022-07-26T05:41:58;25.80;73.40
49385;DHT22;36795;45.028;38.968;2022-07-26T05:44:44;25.80;73.30
49385;DHT22;36795;45.028;38.968;2022-07-26T05:47:30;25.80;73.40
49385;DHT22;36795;45.028;38.968;2022-07-26T05:50:17;25.80;73.70
49385;DHT22;36795;45.028;38.968;2022-07-26T05:53:04;25.80;73.90
49385;DHT22;36795;45.028;38.968;2022-07-26T05:55:50;25.90;73.70
49385;DHT22;36795;45.028;38.968;2022-07-26T05:58:37;25.90;73.60
49385;DHT22;36795;45.028;38.968;2022-07-26T06:01:23;26.00;72.80
49385;DHT22;36795;45.028;38.968;2022-07-26T06:04:13;25.90;72.10
49385;DHT22;36795;45.028;38.968;2022-07-26T06:07:01;25.90;72.30
49385;DHT22;36795;45.028;38.968;2022-07-26T06:09:47;25.90;73.00
49385;DHT22;36795;45.028;38.968;2022-07-26T06:12:33;25.90;72.70
49385;DHT22;36795;45.028;38.968;2022-07-26T06:15:19;25.80;72.80
49385;DHT22;36795;45.028;38.968;2022-07-26T06:18:05;25.80;73.10
49385;DHT22;36795;45.028;38.968;2022-07-26T06:20:52;25.90;73.30
49385;DHT22;36795;45.028;38.968;2022-07-26T06:23:38;25.90;73.10
49385;DHT22;36795;45.028;38.968;2022-07-26T06:26:24;26.00;73.00
49385;DHT22;36795;45.028;38.968;2022-07-26T06:29:12;26.00;72.90
49385;DHT22;36795;45.028;38.968;2022-07-26T06:31:59;26.10;72.80
49385;DHT22;36795;45.028;38.968;2022-07-26T06:34:45;26.10;72.70
49385;DHT22;36795;45.028;38.968;2022-07-26T06:37:35;26.20;72.60
49385;DHT22;36795;45.028;38.968;2022-07-26T06:40:22;26.30;72.50
49385;DHT22;36795;45.028;38.968;2022-07-26T06:43:08;26.40;72.50
49385;DHT22;36795;45.028;38.968;2022-07-26T06:45:54;26.50;72.40
49385;DHT22;36795;45.028;38.968;2022-07-26T06:48:41;26.60;71.90
49385;DHT22;36795;45.028;38.968;2022-07-26T06:51:27;26.70;71.60
49385;DHT22;36795;45.028;38.968;2022-07-26T06:54:13;26.70;71.40
49385;DHT22;36795;45.028;38.968;2022-07-26T06:56:59;26.60;71.50
49385;DHT22;36795;45.028;38.968;2022-07-26T06:59:45;26.50;71.80
49385;DHT22;36795;45.028;38.968;2022-07-26T07:02:31;26.50;71.80
49385;DHT22;36795;45.028;38.968;2022-07-26T07:05:19;26.40;71.90
49385;DHT22;36795;45.028;38.968;2022-07-26T07:08:05;26.30;72.00
49385;DHT22;36795;45.028;38.968;2022-07-26T07:10:52;26.20;71.90
49385;DHT22;36795;45.028;38.968;2022-07-26T07:13:40;26.10;71.80
49385;DHT22;36795;45.028;38.968;2022-07-26T07:16:27;26.00;71.40
49385;DHT22;36795;45.028;38.968;2022-07-26T07:19:12;25.90;71.10
49385;DHT22;36795;45.028;38.968;2022-07-26T07:21:59;25.80;71.10
49385;DHT22;36795;45.028;38.968;2022-07-26T07:24:44;25.80;71.10
49385;DHT22;36795;45.028;38.968;2022-07-26T07:27:31;25.80;70.70
49385;DHT22;36795;45.028;38.968;2022-07-26T07:30:17;25.90;70.30
49385;DHT22;36795;45.028;38.968;2022-07-26T07:33:04;25.90;69.90
49385;DHT22;36795;45.028;38.968;2022-07-26T07:35:50;26.10;69.50
49385;DHT22;36795;45.028;38.968;2022-07-26T07:38:37;26.10;69.30
49385;DHT22;36795;45.028;38.968;2022-07-26T07:41:22;26.10;69.10
49385;DHT22;36795;45.028;38.968;2022-07-26T07:44:09;26.20;69.00
49385;DHT22;36795;45.028;38.968;2022-07-26T07:46:55;26.40;68.90
49385;DHT22;36795;45.028;38.968;2022-07-26T07:49:41;26.40;69.20
49385;DHT22;36795;45.028;38.968;2022-07-26T07:52:27;26.40;69.60
49385;DHT22;36795;45.028;38.968;2022-07-26T07:55:14;26.30;70.00
49385;DHT22;36795;45.028;38.968;2022-07-26T07:58:00;26.10;70.40
49385;DHT22;36795;45.028;38.968;2022-07-26T08:00:47;26.00;70.80
49385;DHT22;36795;45.028;38.968;2022-07-26T08:03:35;25.90;71.10
49385;DHT22;36795;45.028;38.968;2022-07-26T08:06:21;25.90;71.20
49385;DHT22;36795;45.028;38.968;2022-07-26T08:09:07;26.10;70.80
49385;DHT22;36795;45.028;38.968;2022-07-26T08:11:55;26.30;70.40
49385;DHT22;36795;45.028;38.968;2022-07-26T08:14:41;26.50;69.90
49385;DHT22;36795;45.028;38.968;2022-07-26T08:17:27;26.50;69.70
49385;DHT22;36795;45.028;38.968;2022-07-26T08:20:16;26.40;69.90
49385;DHT22;36795;45.028;38.968;2022-07-26T08:23:03;26.40;69.80
49385;DHT22;36795;45.028;38.968;2022-07-26T08:25:52;26.50;69.20
49385;DHT22;36795;45.028;38.968;2022-07-26T08:28:43;26.60;68.60
49385;DHT22;36795;45.028;38.968;2022-07-26T08:31:32;26.80;68.60
49385;DHT22;36795;45.028;38.968;2022-07-26T08:34:21;27.10;67.60
49385;DHT22;36795;45.028;38.968;2022-07-26T08:37:23;27.30;67.30
49385;DHT22;36795;45.028;38.968;2022-07-26T08:40:25;27.40;66.30
49385;DHT22;36795;45.028;38.968;2022-07-26T08:43:17;27.30;64.40
49385;DHT22;36795;45.028;38.968;2022-07-26T08:46:16;27.20;63.70
49385;DHT22;36795;45.028;38.968;2022-07-26T08:49:10;27.30;64.10
49385;DHT22;36795;45.028;38.968;2022-07-26T08:52:08;27.50;63.70
49385;DHT22;36795;45.028;38.968;2022-07-26T08:55:00;27.60;63.60
49385;DHT22;36795;45.028;38.968;2022-07-26T08:58:01;27.80;63.60
49385;DHT22;36795;45.028;38.968;2022-07-26T09:01:14;27.80;63.80
49385;DHT22;36795;45.028;38.968;2022-07-26T09:04:22;27.80;63.60
49385;DHT22;36795;45.028;38.968;2022-07-26T09:07:16;27.90;63.80
49385;DHT22;36795;45.028;38.968;2022-07-26T09:10:09;28.00;62.50
49385;DHT22;36795;45.028;38.968;2022-07-26T09:13:19;28.00;62.70
49385;DHT22;36795;45.028;38.968;2022-07-26T09:16:23;28.10;63.40
49385;DHT22;36795;45.028;38.968;2022-07-26T09:19:25;28.30;63.40
49385;DHT22;36795;45.028;38.968;2022-07-26T09:22:15;28.40;62.10
49385;DHT22;36795;45.028;38.968;2022-07-26T09:25:25;28.50;61.80
49385;DHT22;36795;45.028;38.968;2022-07-26T09:28:28;28.60;60.90
49385;DHT22;36795;45.028;38.968;2022-07-26T09:31:21;28.50;61.30
49385;DHT22;36795;45.028;38.968;2022-07-26T09:34:07;28.60;60.50
49385;DHT22;36795;45.028;38.968;2022-07-26T09:36:54;28.70;60.90
49385;DHT22;36795;45.028;38.968;2022-07-26T09:40:01;28.70;61.50
49385;DHT22;36795;45.028;38.968;2022-07-26T09:43:04;28.90;60.90
49385;DHT22;36795;45.028;38.968;2022-07-26T09:46:14;29.00;59.60
49385;DHT22;36795;45.028;38.968;2022-07-26T09:49:18;28.90;60.00
49385;DHT22;36795;45.028;38.968;2022-07-26T09:52:16;28.90;60.00
49385;DHT22;36795;45.028;38.968;2022-07-26T09:55:08;28.90;60.00
49385;DHT22;36795;45.028;38.968;2022-07-26T09:58:02;29.00;60.10
49385;DHT22;36795;45.028;38.968;2022-07-26T10:00:51;29.10;59.50
49385;DHT22;36795;45.028;38.968;2022-07-26T10:03:37;29.20;58.80
49385;DHT22;36795;45.028;38.968;2022-07-26T10:06:24;29.30;58.90
49385;DHT22;36795;45.028;38.968;2022-07-26T10:09:12;29.40;58.70
49385;DHT22;36795;45.028;38.968;2022-07-26T10:12:07;29.70;58.20
49385;DHT22;36795;45.028;38.968;2022-07-26T10:14:58;30.00;57.20
49385;DHT22;36795;45.028;38.968;2022-07-26T10:17:44;30.10;56.50
49385;DHT22;36795;45.028;38.968;2022-07-26T10:20:59;30.00;55.10
49385;DHT22;36795;45.028;38.968;2022-07-26T10:23:57;30.00;55.90
49385;DHT22;36795;45.028;38.968;2022-07-26T10:26:44;30.10;55.90
49385;DHT22;36795;45.028;38.968;2022-07-26T10:29:30;30.00;56.70
49385;DHT22;36795;45.028;38.968;2022-07-26T10:32:16;29.80;56.80
49385;DHT22;36795;45.028;38.968;2022-07-26T10:38:25;29.60;56.60
49385;DHT22;36795;45.028;38.968;2022-07-26T10:41:11;29.80;56.30
49385;DHT22;36795;45.028;38.968;2022-07-26T10:44:30;29.80;54.20
49385;DHT22;36795;45.028;38.968;2022-07-26T10:47:16;29.90;54.10
49385;DHT22;36795;45.028;38.968;2022-07-26T10:50:06;30.00;54.90
49385;DHT22;36795;45.028;38.968;2022-07-26T10:52:58;29.90;54.00
49385;DHT22;36795;45.028;38.968;2022-07-26T10:56:03;30.00;53.70
49385;DHT22;36795;45.028;38.968;2022-07-26T10:58:49;30.00;53.10
49385;DHT22;36795;45.028;38.968;2022-07-26T11:01:41;30.00;52.70
49385;DHT22;36795;45.028;38.968;2022-07-26T11:04:30;30.10;53.10
49385;DHT22;36795;45.028;38.968;2022-07-26T11:07:31;30.30;53.50
49385;DHT22;36795;45.028;38.968;2022-07-26T11:10:44;30.30;53.30
49385;DHT22;36795;45.028;38.968;2022-07-26T11:14:08;30.20;53.40
49385;DHT22;36795;45.028;38.968;2022-07-26T11:17:31;30.00;53.80
49385;DHT22;36795;45.028;38.968;2022-07-26T11:20:24;29.70;53.90
49385;DHT22;36795;45.028;38.968;2022-07-26T11:23:28;29.40;54.60
49385;DHT22;36795;45.028;38.968;2022-07-26T11:26:17;29.10;55.40
49385;DHT22;36795;45.028;38.968;2022-07-26T11:29:03;29.00;55.70
49385;DHT22;36795;45.028;38.968;2022-07-26T11:31:49;28.90;56.50
49385;DHT22;36795;45.028;38.968;2022-07-26T11:34:35;28.80;57.90
49385;DHT22;36795;45.028;38.968;2022-07-26T11:37:21;29.00;57.70
49385;DHT22;36795;45.028;38.968;2022-07-26T11:40:10;29.40;56.70
49385;DHT22;36795;45.028;38.968;2022-07-26T11:42:57;29.90;55.40
49385;DHT22;36795;45.028;38.968;2022-07-26T11:45:51;30.10;54.30
49385;DHT22;36795;45.028;38.968;2022-07-26T11:48:43;30.30;54.50
49385;DHT22;36795;45.028;38.968;2022-07-26T11:51:29;30.50;53.00
49385;DHT22;36795;45.028;38.968;2022-07-26T11:54:15;30.70;52.00
49385;DHT22;36795;45.028;38.968;2022-07-26T11:57:04;30.80;52.00
49385;DHT22;36795;45.028;38.968;2022-07-26T11:59:52;31.10;52.00
49385;DHT22;36795;45.028;38.968;2022-07-26T12:02:40;31.40;51.10
49385;DHT22;36795;45.028;38.968;2022-07-26T12:05:27;31.10;51.70
49385;DHT22;36795;45.028;38.968;2022-07-26T12:08:14;30.60;53.00
49385;DHT22;36795;45.028;38.968;2022-07-26T12:11:01;30.30;54.40
49385;DHT22;36795;45.028;38.968;2022-07-26T12:13:58;30.20;54.90
49385;DHT22;36795;45.028;38.968;2022-07-26T12:16:46;30.10;55.20
49385;DHT22;36795;45.028;38.968;2022-07-26T12:19:31;30.10;54.20
49385;DHT22;36795;45.028;38.968;2022-07-26T12:22:20;29.90;52.80
49385;DHT22;36795;45.028;38.968;2022-07-26T12:25:06;29.70;53.90
49385;DHT22;36795;45.028;38.968;2022-07-26T12:27:53;29.50;55.10
49385;DHT22;36795;45.028;38.968;2022-07-26T12:30:39;29.40;55.90
49385;DHT22;36795;45.028;38.968;2022-07-26T12:33:26;29.30;56.30
49385;DHT22;36795;45.028;38.968;2022-07-26T12:36:20;29.50;55.80
49385;DHT22;36795;45.028;38.968;2022-07-26T12:39:19;29.60;55.10
49385;DHT22;36795;45.028;38.968;2022-07-26T12:42:26;29.60;54.70
49385;DHT22;36795;45.028;38.968;2022-07-26T12:45:12;29.60;54.50
49385;DHT22;36795;45.028;38.968;2022-07-26T12:48:01;29.50;54.60
49385;DHT22;36795;45.028;38.968;2022-07-26T12:50:48;29.40;55.30
49385;DHT22;36795;45.028;38.968;2022-07-26T12:53:35;29.30;55.90
49385;DHT22;36795;45.028;38.968;2022-07-26T12:56:22;29.20;56.30
49385;DHT22;36795;45.028;38.968;2022-07-26T12:59:09;29.10;56.30
49385;DHT22;36795;45.028;38.968;2022-07-26T13:01:58;28.90;56.90
49385;DHT22;36795;45.028;38.968;2022-07-26T13:04:45;28.80;57.20
49385;DHT22;36795;45.028;38.968;2022-07-26T13:07:32;28.70;57.30
49385;DHT22;36795;45.028;38.968;2022-07-26T13:10:19;28.70;57.60
49385;DHT22;36795;45.028;38.968;2022-07-26T13:13:05;28.60;57.70
49385;DHT22;36795;45.028;38.968;2022-07-26T13:15:51;28.70;57.90
49385;DHT22;36795;45.028;38.968;2022-07-26T13:18:38;28.70;57.70
49385;DHT22;36795;45.028;38.968;2022-07-26T13:21:24;28.60;57.40
49385;DHT22;36795;45.028;38.968;2022-07-26T13:24:10;28.60;57.30
49385;DHT22;36795;45.028;38.968;2022-07-26T13:26:57;28.60;57.50
49385;DHT22;36795;45.028;38.968;2022-07-26T13:29:43;28.50;58.80
49385;DHT22;36795;45.028;38.968;2022-07-26T13:32:30;28.30;59.80
49385;DHT22;36795;45.028;38.968;2022-07-26T13:35:16;28.20;60.70
49385;DHT22;36795;45.028;38.968;2022-07-26T13:38:02;28.40;60.90
49385;DHT22;36795;45.028;38.968;2022-07-26T13:40:49;28.70;60.40
49385;DHT22;36795;45.028;38.968;2022-07-26T13:43:35;29.20;59.40
49385;DHT22;36795;45.028;38.968;2022-07-26T13:46:23;29.60;58.70
49385;DHT22;36795;45.028;38.968;2022-07-26T13:49:11;29.70;58.40
49385;DHT22;36795;45.028;38.968;2022-07-26T13:51:58;29.90;57.90
49385;DHT22;36795;45.028;38.968;2022-07-26T13:54:44;30.00;57.80
49385;DHT22;36795;45.028;38.968;2022-07-26T13:57:30;30.20;57.60
49385;DHT22;36795;45.028;38.968;2022-07-26T14:00:16;30.60;57.00
49385;DHT22;36795;45.028;38.968;2022-07-26T14:03:03;30.80;56.30
49385;DHT22;36795;45.028;38.968;2022-07-26T14:05:50;30.60;56.80
49385;DHT22;36795;45.028;38.968;2022-07-26T14:08:36;30.40;57.00
49385;DHT22;36795;45.028;38.968;2022-07-26T14:11:25;30.50;56.60
49385;DHT22;36795;45.028;38.968;2022-07-26T14:14:13;30.70;56.20
49385;DHT22;36795;45.028;38.968;2022-07-26T14:16:59;30.60;56.20
49385;DHT22;36795;45.028;38.968;2022-07-26T14:19:46;30.80;56.40
49385;DHT22;36795;45.028;38.968;2022-07-26T14:22:32;31.20;55.70
49385;DHT22;36795;45.028;38.968;2022-07-26T14:25:20;31.70;54.90
49385;DHT22;36795;45.028;38.968;2022-07-26T14:28:06;32.30;54.00
49385;DHT22;36795;45.028;38.968;2022-07-26T14:30:53;33.30;52.20
49385;DHT22;36795;45.028;38.968;2022-07-26T14:33:39;34.50;49.30
49385;DHT22;36795;45.028;38.968;2022-07-26T14:36:25;35.20;47.30
49385;DHT22;36795;45.028;38.968;2022-07-26T14:39:11;35.20;46.50
49385;DHT22;36795;45.028;38.968;2022-07-26T14:42:01;34.10;47.80
49385;DHT22;36795;45.028;38.968;2022-07-26T14:44:48;33.90;48.60
49385;DHT22;36795;45.028;38.968;2022-07-26T14:47:35;34.00;48.70
49385;DHT22;36795;45.028;38.968;2022-07-26T14:50:21;33.80;48.50
49385;DHT22;36795;45.028;38.968;2022-07-26T14:53:15;33.60;49.20
49385;DHT22;36795;45.028;38.968;2022-07-26T14:56:02;33.60;49.30
49385;DHT22;36795;45.028;38.968;2022-07-26T14:58:49;33.00;50.00
49385;DHT22;36795;45.028;38.968;2022-07-26T15:01:35;32.00;51.70
49385;DHT22;36795;45.028;38.968;2022-07-26T15:04:25;31.20;53.50
49385;DHT22;36795;45.028;38.968;2022-07-26T15:07:20;30.40;54.70
49385;DHT22;36795;45.028;38.968;2022-07-26T15:10:17;29.90;55.50
49385;DHT22;36795;45.028;38.968;2022-07-26T15:13:15;29.40;56.50
49385;DHT22;36795;45.028;38.968;2022-07-26T15:16:02;29.00;56.90
49385;DHT22;36795;45.028;38.968;2022-07-26T15:18:49;28.80;57.70
49385;DHT22;36795;45.028;38.968;2022-07-26T15:21:36;28.60;58.30
49385;DHT22;36795;45.028;38.968;2022-07-26T15:24:22;28.40;58.80
49385;DHT22;36795;45.028;38.968;2022-07-26T15:27:09;28.40;59.20
49385;DHT22;36795;45.028;38.968;2022-07-26T15:29:58;28.20;59.50
49385;DHT22;36795;45.028;38.968;2022-07-26T15:32:45;28.20;59.70
49385;DHT22;36795;45.028;38.968;2022-07-26T15:35:30;28.20;59.80
49385;DHT22;36795;45.028;38.968;2022-07-26T15:38:18;28.10;59.90
49385;DHT22;36795;45.028;38.968;2022-07-26T15:41:04;28.10;60.20
49385;DHT22;36795;45.028;38.968;2022-07-26T15:43:50;28.00;60.40
49385;DHT22;36795;45.028;38.968;2022-07-26T15:46:36;28.00;60.60
49385;DHT22;36795;45.028;38.968;2022-07-26T15:49:23;27.90;60.90
49385;DHT22;36795;45.028;38.968;2022-07-26T15:52:09;27.80;61.30
49385;DHT22;36795;45.028;38.968;2022-07-26T15:55:00;27.70;61.70
49385;DHT22;36795;45.028;38.968;2022-07-26T15:57:51;27.60;62.10
49385;DHT22;36795;45.028;38.968;2022-07-26T16:00:38;27.60;62.40
49385;DHT22;36795;45.028;38.968;2022-07-26T16:03:25;27.50;62.30
49385;DHT22;36795;45.028;38.968;2022-07-26T16:06:11;27.40;62.10
49385;DHT22;36795;45.028;38.968;2022-07-26T16:08:58;27.30;62.00
49385;DHT22;36795;45.028;38.968;2022-07-26T16:11:47;27.20;61.50
49385;DHT22;36795;45.028;38.968;2022-07-26T16:14:34;27.20;61.30
49385;DHT22;36795;45.028;38.968;2022-07-26T16:17:22;27.10;61.10
49385;DHT22;36795;45.028;38.968;2022-07-26T16:20:09;27.10;61.10
49385;DHT22;36795;45.028;38.968;2022-07-26T16:22:55;27.10;60.90
49385;DHT22;36795;45.028;38.968;2022-07-26T16:25:42;27.10;60.90
49385;DHT22;36795;45.028;38.968;2022-07-26T16:28:28;27.00;60.70
49385;DHT22;36795;45.028;38.968;2022-07-26T16:31:15;26.90;60.80
49385;DHT22;36795;45.028;38.968;2022-07-26T16:34:01;26.90;60.90
49385;DHT22;36795;45.028;38.968;2022-07-26T16:36:48;26.80;60.90
49385;DHT22;36795;45.028;38.968;2022-07-26T16:39:34;26.80;61.00
49385;DHT22;36795;45.028;38.968;2022-07-26T16:42:21;26.80;61.10
49385;DHT22;36795;45.028;38.968;2022-07-26T16:45:07;26.70;61.30
49385;DHT22;36795;45.028;38.968;2022-07-26T16:47:54;26.70;61.60
49385;DHT22;36795;45.028;38.968;2022-07-26T16:50:40;26.70;61.80
49385;DHT22;36795;45.028;38.968;2022-07-26T16:53:26;26.70;61.90
49385;DHT22;36795;45.028;38.968;2022-07-26T16:56:12;26.60;62.00
49385;DHT22;36795;45.028;38.968;2022-07-26T16:58:59;26.50;62.20
49385;DHT22;36795;45.028;38.968;2022-07-26T17:01:45;26.50;62.60
49385;DHT22;36795;45.028;38.968;2022-07-26T17:04:31;26.40;62.90
49385;DHT22;36795;45.028;38.968;2022-07-26T17:07:17;26.30;63.20
49385;DHT22;36795;45.028;38.968;2022-07-26T17:10:05;26.30;63.40
49385;DHT22;36795;45.028;38.968;2022-07-26T17:12:52;26.30;63.80
49385;DHT22;36795;45.028;38.968;2022-07-26T17:15:39;26.30;64.10
49385;DHT22;36795;45.028;38.968;2022-07-26T17:18:25;26.20;64.40
49385;DHT22;36795;45.028;38.968;2022-07-26T17:21:11;26.20;64.70
49385;DHT22;36795;45.028;38.968;2022-07-26T17:23:57;26.10;64.80
49385;DHT22;36795;45.028;38.968;2022-07-26T17:26:43;26.20;64.90
49385;DHT22;36795;45.028;38.968;2022-07-26T17:29:29;26.10;64.90